createdAt,value
2022-12-01T00:01:12.663Z,59.42
2022-12-01T00:03:39.679Z,52.95
2022-12-01T00:06:10.681Z,43.60
2022-12-01T00:08:37.756Z,60.35
2022-12-01T00:11:14.593Z,56.13
2022-12-01T00:13:41.262Z,53.92
2022-12-01T00:16:16.234Z,67.55
2022-12-01T00:18:43.387Z,66.15
2022-12-01T00:21:17.912Z,58.70
2022-12-01T00:23:47.234Z,59.17
2022-12-01T00:26:15.450Z,64.13
2022-12-01T00:28:42.510Z,59.15
2022-12-01T00:31:12.862Z,58.85
2022-12-01T00:33:40.050Z,64.97
2022-12-01T00:36:07.463Z,70.20
2022-12-01T00:38:34.900Z,71.80
2022-12-01T00:41:02.094Z,77.28
2022-12-01T00:43:28.883Z,73.10
2022-12-01T00:45:56.520Z,67.78
2022-12-01T00:48:23.342Z,70.40
2022-12-01T00:50:54.290Z,80.13
2022-12-01T00:55:49.611Z,76.47
2022-12-01T00:58:16.434Z,77.82
2022-12-01T01:00:43.142Z,77.57
2022-12-01T01:03:10.369Z,84.15
2022-12-01T01:05:41.795Z,83.05
2022-12-01T01:08:10.229Z,90.22
2022-12-01T01:10:44.287Z,74.43
2022-12-01T01:13:12.705Z,81.45
2022-12-01T01:15:39.435Z,79.90
2022-12-01T01:18:07.109Z,97.70
2022-12-01T01:20:34.094Z,103.75
2022-12-01T01:23:00.802Z,84.05
2022-12-01T01:25:27.528Z,81.53
2022-12-01T01:27:54.283Z,89.63
2022-12-01T01:30:21.454Z,91.90
2022-12-01T01:32:48.229Z,82.68
2022-12-01T01:35:15.032Z,81.05
2022-12-01T01:37:41.726Z,79.50
2022-12-01T01:40:08.974Z,83.32
2022-12-01T01:42:35.766Z,78.28
2022-12-01T01:45:02.511Z,74.72
2022-12-01T01:47:38.442Z,79.55
2022-12-01T01:50:14.769Z,85.68
2022-12-01T01:52:48.248Z,87.65
2022-12-01T01:55:15.576Z,81.43
2022-12-01T01:57:43.536Z,85.15
2022-12-01T02:00:13.779Z,76.25
2022-12-01T02:02:52.013Z,79.13
2022-12-01T02:05:39.942Z,72.80
2022-12-01T02:08:15.281Z,76.68
2022-12-01T02:10:53.519Z,59.92
2022-12-01T02:13:32.307Z,58.10
2022-12-01T02:16:22.821Z,60.83
2022-12-01T02:19:23.501Z,61.05
2022-12-01T02:22:21.549Z,60.25
2022-12-01T02:24:54.204Z,62.13
2022-12-01T02:27:27.120Z,55.25
2022-12-01T02:30:14.815Z,67.32
2022-12-01T02:33:04.825Z,78.15
2022-12-01T02:35:50.308Z,74.60
2022-12-01T02:39:10.510Z,72.72
2022-12-01T02:41:42.943Z,76.25
2022-12-01T02:44:23.653Z,57.55
2022-12-01T02:47:10.631Z,74.13
2022-12-01T02:49:41.920Z,77.20
2022-12-01T02:52:11.071Z,81.97
2022-12-01T02:54:38.312Z,88.63
2022-12-01T02:57:05.211Z,92.97
2022-12-01T02:59:31.943Z,104.25
2022-12-01T03:02:24.526Z,109.50
2022-12-01T03:04:57.471Z,122.97
2022-12-01T03:07:49.093Z,127.70
2022-12-01T03:10:37.235Z,117.50
2022-12-01T03:13:09.938Z,137.30
2022-12-01T03:15:58.388Z,131.05
2022-12-01T03:18:34.054Z,143.00
2022-12-01T03:21:20.238Z,144.77
2022-12-01T03:23:51.898Z,150.15
2022-12-01T03:26:22.124Z,145.18
2022-12-01T03:29:00.329Z,154.30
2022-12-01T03:31:35.580Z,146.13
2022-12-01T03:34:28.825Z,134.60
2022-12-01T03:36:58.902Z,147.05
2022-12-01T03:39:33.184Z,146.02
2022-12-01T03:42:06.110Z,152.38
2022-12-01T03:44:46.405Z,134.30
2022-12-01T03:47:18.852Z,151.20
2022-12-01T03:49:47.411Z,141.85
2022-12-01T03:52:20.377Z,139.50
2022-12-01T03:54:59.914Z,145.93
2022-12-01T03:57:33.637Z,143.45
2022-12-01T04:00:01.173Z,126.05
2022-12-01T04:02:28.895Z,125.00
2022-12-01T04:04:55.745Z,121.60
2022-12-01T04:07:23.442Z,137.45
2022-12-01T04:09:50.642Z,138.00
2022-12-01T04:12:29.693Z,115.47
2022-12-01T04:15:14.418Z,115.70
2022-12-01T04:17:45.012Z,120.78
2022-12-01T04:20:14.862Z,116.20
2022-12-01T04:22:41.914Z,113.90
2022-12-01T04:25:09.848Z,112.35
2022-12-01T04:27:36.847Z,136.93
2022-12-01T04:30:05.360Z,112.90
2022-12-01T04:32:32.052Z,118.38
2022-12-01T04:34:58.756Z,116.22
2022-12-01T04:37:25.429Z,114.45
2022-12-01T04:39:52.327Z,127.35
2022-12-01T04:42:19.199Z,122.55
2022-12-01T04:44:45.936Z,117.68
2022-12-01T04:47:12.830Z,117.22
2022-12-01T04:49:39.532Z,118.30
2022-12-01T04:52:06.393Z,131.52
2022-12-01T04:54:33.478Z,123.20
2022-12-01T04:57:00.348Z,115.32
2022-12-01T04:59:27.171Z,121.95
2022-12-01T05:01:53.952Z,114.10
2022-12-01T05:04:20.838Z,122.07
2022-12-01T05:06:47.578Z,118.38
2022-12-01T05:09:17.829Z,127.53
2022-12-01T05:11:44.861Z,116.68
2022-12-01T05:14:11.849Z,131.73
2022-12-01T05:16:38.662Z,118.22
2022-12-01T05:19:25.072Z,123.50
2022-12-01T05:21:52.135Z,115.15
2022-12-01T05:24:20.403Z,111.25
2022-12-01T05:26:47.351Z,120.45
2022-12-01T05:29:14.521Z,99.60
2022-12-01T05:31:41.360Z,102.05
2022-12-01T05:34:08.696Z,106.07
2022-12-01T05:36:36.364Z,98.65
2022-12-01T05:39:04.085Z,106.28
2022-12-01T05:41:30.925Z,100.63
2022-12-01T05:43:57.603Z,101.95
2022-12-01T05:46:24.488Z,107.80
2022-12-01T05:48:51.248Z,104.47
2022-12-01T05:51:18.003Z,105.30
2022-12-01T05:53:44.983Z,88.80
2022-12-01T05:56:11.813Z,99.45
2022-12-01T05:58:38.611Z,98.60
2022-12-01T06:01:05.531Z,98.20
2022-12-01T06:03:32.311Z,100.45
2022-12-01T06:05:59.029Z,99.95
2022-12-01T06:08:25.816Z,99.85
2022-12-01T06:10:52.780Z,98.43
2022-12-01T06:13:19.511Z,95.93
2022-12-01T06:15:46.237Z,100.28
2022-12-01T06:18:12.948Z,93.03
2022-12-01T06:20:39.882Z,96.88
2022-12-01T06:23:06.703Z,102.07
2022-12-01T06:25:33.416Z,92.50
2022-12-01T06:28:00.234Z,104.88
2022-12-01T06:30:26.978Z,96.57
2022-12-01T06:32:53.684Z,97.72
2022-12-01T06:35:20.541Z,95.35
2022-12-01T06:37:47.290Z,95.03
2022-12-01T06:40:14.273Z,104.45
2022-12-01T06:42:41.058Z,98.93
2022-12-01T06:45:08.269Z,106.55
2022-12-01T06:47:35.000Z,97.45
2022-12-01T06:50:02.191Z,104.20
2022-12-01T06:52:28.938Z,96.30
2022-12-01T06:54:55.661Z,108.90
2022-12-01T06:57:22.658Z,100.72
2022-12-01T06:59:49.778Z,106.25
2022-12-01T07:02:17.372Z,113.60
2022-12-01T07:04:44.093Z,112.30
2022-12-01T07:07:12.136Z,107.88
2022-12-01T07:09:39.770Z,107.30
2022-12-01T07:12:06.774Z,108.25
2022-12-01T07:14:33.958Z,104.13
2022-12-01T07:17:00.646Z,94.75
2022-12-01T07:19:27.484Z,103.00
2022-12-01T07:21:54.173Z,109.78
2022-12-01T07:24:20.903Z,114.22
2022-12-01T07:26:48.200Z,112.30
2022-12-01T07:29:15.086Z,119.45
2022-12-01T07:31:41.813Z,123.72
2022-12-01T07:34:11.588Z,127.90
2022-12-01T07:36:38.268Z,116.88
2022-12-01T07:39:07.496Z,121.25
2022-12-01T07:41:35.195Z,121.60
2022-12-01T07:44:02.421Z,116.13
2022-12-01T07:46:29.340Z,126.03
2022-12-01T07:48:57.019Z,122.28
2022-12-01T07:51:25.291Z,125.65
2022-12-01T07:53:53.539Z,119.20
2022-12-01T07:56:21.865Z,130.85
2022-12-01T07:58:48.683Z,119.38
2022-12-01T08:01:18.429Z,130.65
2022-12-01T08:03:45.602Z,120.85
2022-12-01T08:06:12.567Z,126.88
2022-12-01T08:08:40.922Z,128.13
2022-12-01T08:11:13.718Z,118.18
2022-12-01T08:13:41.419Z,126.55
2022-12-01T08:16:09.920Z,127.18
2022-12-01T08:18:38.236Z,121.57
2022-12-01T08:21:06.295Z,118.32
2022-12-01T08:23:33.382Z,115.72
2022-12-01T08:26:10.441Z,114.55
2022-12-01T08:28:37.215Z,120.55
2022-12-01T08:31:29.393Z,132.93
2022-12-01T08:33:57.068Z,110.82
2022-12-01T08:36:25.049Z,117.15
2022-12-01T08:38:53.963Z,110.85
2022-12-01T08:41:21.553Z,114.53
2022-12-01T08:44:03.747Z,124.93
2022-12-01T08:49:02.509Z,112.38
2022-12-01T08:51:29.391Z,116.68
2022-12-01T08:53:58.066Z,116.57
2022-12-01T08:56:29.817Z,123.45
2022-12-01T08:58:57.008Z,132.25
2022-12-01T09:01:25.612Z,115.38
2022-12-01T09:04:10.771Z,109.88
2022-12-01T09:06:42.656Z,102.75
2022-12-01T09:09:11.567Z,98.18
2022-12-01T09:11:38.995Z,98.95
2022-12-01T09:14:06.123Z,106.32
2022-12-01T09:16:33.077Z,100.30
2022-12-01T09:18:59.904Z,105.43
2022-12-01T09:21:30.596Z,96.07
2022-12-01T09:23:57.589Z,89.65
2022-12-01T09:26:25.126Z,93.97
2022-12-01T09:28:57.193Z,89.35
2022-12-01T09:33:59.226Z,92.45
2022-12-01T09:36:26.968Z,93.10
2022-12-01T09:38:53.677Z,96.13
2022-12-01T09:41:27.215Z,90.63
2022-12-01T09:44:23.514Z,91.38
2022-12-01T09:46:56.216Z,84.95
2022-12-01T09:49:28.380Z,86.30
2022-12-01T09:54:22.130Z,78.80
2022-12-01T09:56:53.009Z,84.07
2022-12-01T09:59:26.840Z,81.60
2022-12-01T10:02:03.183Z,88.75
2022-12-01T10:04:36.104Z,80.85
2022-12-01T10:07:21.077Z,77.47
2022-12-01T10:09:59.573Z,76.60
2022-12-01T10:12:30.775Z,82.65
2022-12-01T10:15:06.346Z,79.07
2022-12-01T10:18:02.933Z,83.63
2022-12-01T10:20:56.889Z,79.70
2022-12-01T10:23:32.811Z,81.82
2022-12-01T10:26:29.163Z,77.43
2022-12-01T10:29:10.372Z,81.18
2022-12-01T10:31:58.345Z,80.68
2022-12-01T10:34:38.077Z,77.30
2022-12-01T10:37:05.590Z,86.47
2022-12-01T10:39:38.516Z,81.80
2022-12-01T10:42:20.161Z,75.18
2022-12-01T10:44:48.019Z,68.53
2022-12-01T10:47:21.316Z,67.22
2022-12-01T10:49:48.976Z,72.13
2022-12-01T10:52:36.428Z,63.50
2022-12-01T10:55:23.132Z,63.53
2022-12-01T10:57:50.804Z,74.55
2022-12-01T11:00:58.175Z,67.28
2022-12-01T11:03:22.235Z,68.15
2022-12-01T11:05:58.207Z,62.40
2022-12-01T11:08:46.529Z,63.17
2022-12-01T11:11:40.356Z,55.83
2022-12-01T11:14:22.083Z,60.22
2022-12-01T11:16:51.467Z,63.58
2022-12-01T11:19:32.616Z,59.78
2022-12-01T11:22:01.864Z,65.85
2022-12-01T11:24:55.403Z,63.65
2022-12-01T11:27:28.926Z,67.63
2022-12-01T11:30:06.256Z,57.75
2022-12-01T11:32:39.228Z,61.15
2022-12-01T11:35:22.256Z,63.92
2022-12-01T11:38:27.680Z,62.78
2022-12-01T11:40:54.562Z,61.28
2022-12-01T11:43:24.264Z,69.03
2022-12-01T11:45:51.619Z,64.90
2022-12-01T11:48:28.273Z,75.15
2022-12-01T11:51:28.412Z,69.50
2022-12-01T11:54:18.270Z,75.47
2022-12-01T11:56:52.788Z,70.15
2022-12-01T11:59:31.348Z,70.85
2022-12-01T12:02:15.902Z,76.60
2022-12-01T12:05:11.705Z,69.43
2022-12-01T12:07:57.560Z,63.05
2022-12-01T12:10:37.607Z,70.47
2022-12-01T12:13:16.434Z,75.63
2022-12-01T12:16:07.754Z,74.88
2022-12-01T12:18:49.371Z,77.75
2022-12-01T12:21:22.323Z,74.63
2022-12-01T12:24:05.360Z,64.65
2022-12-01T12:27:09.790Z,67.10
2022-12-01T12:29:36.446Z,75.72
2022-12-01T12:32:17.769Z,69.50
2022-12-01T12:34:52.479Z,65.03
2022-12-01T12:37:31.038Z,76.80
2022-12-01T12:40:00.743Z,72.70
2022-12-01T12:42:36.358Z,67.47
2022-12-01T12:45:23.235Z,74.20
2022-12-01T12:48:26.749Z,73.88
2022-12-01T12:51:21.338Z,73.93
2022-12-01T12:53:59.739Z,80.88
2022-12-01T12:56:30.453Z,66.45
2022-12-01T12:59:02.429Z,75.50
2022-12-01T13:01:36.801Z,84.95
2022-12-01T13:04:16.423Z,68.70
2022-12-01T13:06:55.932Z,72.32
2022-12-01T13:09:31.022Z,75.28
2022-12-01T13:12:05.319Z,82.50
2022-12-01T13:14:49.485Z,74.47
2022-12-01T13:17:35.379Z,77.50
2022-12-01T13:20:02.111Z,75.60
2022-12-01T13:22:32.774Z,79.00
2022-12-01T13:24:59.624Z,81.70
2022-12-01T13:27:31.607Z,73.82
2022-12-01T13:29:59.321Z,71.85
2022-12-01T13:32:34.077Z,59.80
2022-12-01T13:35:03.371Z,69.32
2022-12-01T13:37:33.659Z,71.97
2022-12-01T13:40:10.582Z,72.65
2022-12-01T13:42:39.725Z,69.85
2022-12-01T13:45:19.979Z,69.30
2022-12-01T13:47:46.699Z,76.30
2022-12-01T13:50:45.679Z,80.88
2022-12-01T13:53:34.950Z,66.93
2022-12-01T13:56:16.362Z,67.93
2022-12-01T13:58:53.300Z,66.75
2022-12-01T14:01:20.371Z,72.47
2022-12-01T14:04:01.266Z,76.03
2022-12-01T14:06:30.959Z,69.70
2022-12-01T14:09:05.831Z,67.53
2022-12-01T14:11:34.660Z,76.97
2022-12-01T14:14:19.980Z,74.38
2022-12-01T14:16:53.159Z,67.80
2022-12-01T14:19:38.784Z,72.55
2022-12-01T14:22:07.095Z,69.15
2022-12-01T14:24:41.540Z,78.10
2022-12-01T14:27:11.725Z,74.85
2022-12-01T14:29:42.887Z,79.65
2022-12-01T14:32:09.517Z,64.23
2022-12-01T14:34:38.018Z,72.15
2022-12-01T14:37:18.340Z,67.53
2022-12-01T14:39:52.031Z,72.20
2022-12-01T14:42:49.441Z,68.50
2022-12-01T14:45:22.432Z,67.00
2022-12-01T14:48:00.206Z,70.30
2022-12-01T14:50:46.355Z,72.38
2022-12-01T14:53:26.071Z,77.68
2022-12-01T14:55:59.193Z,73.47
2022-12-01T14:58:31.529Z,70.78
2022-12-01T15:01:06.458Z,68.93
2022-12-01T15:03:41.466Z,66.38
2022-12-01T15:06:08.933Z,71.22
2022-12-01T15:08:49.366Z,74.93
2022-12-01T15:11:25.515Z,64.32
2022-12-01T15:16:25.538Z,62.33
2022-12-01T15:18:53.065Z,68.10
2022-12-01T15:21:31.711Z,74.28
2022-12-01T15:24:03.190Z,74.45
2022-12-01T15:26:48.736Z,79.93
2022-12-01T15:29:19.199Z,78.28
2022-12-01T15:31:52.250Z,88.90
2022-12-01T15:34:36.182Z,82.93
2022-12-01T15:37:11.063Z,72.32
2022-12-01T15:39:44.097Z,82.97
2022-12-01T15:42:39.327Z,80.97
2022-12-01T15:45:20.585Z,74.22
2022-12-01T15:47:50.553Z,76.30
2022-12-01T15:50:33.449Z,93.38
2022-12-01T15:53:05.253Z,82.60
2022-12-01T15:55:34.774Z,106.75
2022-12-01T15:58:06.030Z,87.90
2022-12-01T16:00:32.885Z,90.32
2022-12-01T16:03:02.055Z,83.32
2022-12-01T16:05:34.779Z,83.82
2022-12-01T16:08:22.972Z,81.50
2022-12-01T16:11:11.670Z,81.60
2022-12-01T16:14:16.474Z,93.03
2022-12-01T16:16:47.316Z,77.65
2022-12-01T16:19:17.018Z,89.97
2022-12-01T16:22:02.326Z,78.93
2022-12-01T16:24:31.119Z,72.75
2022-12-01T16:26:59.852Z,77.25
2022-12-01T16:29:28.342Z,93.00
2022-12-01T16:32:20.374Z,85.65
2022-12-01T16:34:46.755Z,76.75
2022-12-01T16:37:14.891Z,78.85
2022-12-01T16:39:41.618Z,81.05
2022-12-01T16:42:16.258Z,97.65
2022-12-01T16:44:44.679Z,104.78
2022-12-01T16:47:20.388Z,101.68
2022-12-01T16:49:47.557Z,91.03
2022-12-01T16:55:01.578Z,90.07
2022-12-01T16:57:29.522Z,73.93
2022-12-01T16:59:56.222Z,106.30
2022-12-01T17:02:23.031Z,87.30
2022-12-01T17:04:50.013Z,94.47
2022-12-01T17:07:16.933Z,99.72
2022-12-01T17:09:43.646Z,84.60
2022-12-01T17:12:10.336Z,83.00
2022-12-01T17:14:37.137Z,86.63
2022-12-01T17:17:03.847Z,95.05
2022-12-01T17:19:30.552Z,101.95
2022-12-01T17:21:57.263Z,104.55
2022-12-01T17:24:25.837Z,97.00
2022-12-01T17:26:52.573Z,83.28
2022-12-01T17:29:19.323Z,109.07
2022-12-01T17:31:46.083Z,90.05
2022-12-01T17:34:12.913Z,93.07
2022-12-01T17:36:39.599Z,94.93
2022-12-01T17:39:07.514Z,124.47
2022-12-01T17:41:35.757Z,90.90
2022-12-01T17:44:05.892Z,102.75
2022-12-01T17:46:32.865Z,99.38
2022-12-01T17:49:00.819Z,110.25
2022-12-01T17:51:27.546Z,95.93
2022-12-01T17:53:54.450Z,120.43
2022-12-01T17:56:21.150Z,109.85
2022-12-01T17:58:50.358Z,104.32
2022-12-01T18:01:19.327Z,110.47
2022-12-01T18:03:46.721Z,103.88
2022-12-01T18:06:14.546Z,113.20
2022-12-01T18:08:41.586Z,89.90
2022-12-01T18:11:12.577Z,93.20
2022-12-01T18:13:41.916Z,109.78
2022-12-01T18:16:19.602Z,105.55
2022-12-01T18:18:46.796Z,111.72
2022-12-01T18:21:15.940Z,115.53
2022-12-01T18:23:47.839Z,115.63
2022-12-01T18:26:16.182Z,117.88
2022-12-01T18:28:44.149Z,116.85
2022-12-01T18:31:14.284Z,115.00
2022-12-01T18:33:42.958Z,111.35
2022-12-01T18:36:18.640Z,120.03
2022-12-01T18:38:47.182Z,92.72
2022-12-01T18:41:14.764Z,105.88
2022-12-01T18:43:42.045Z,110.78
2022-12-01T18:46:08.864Z,113.68
2022-12-01T18:48:35.650Z,100.47
2022-12-01T18:51:06.731Z,102.40
2022-12-01T18:53:37.903Z,113.80
2022-12-01T18:56:07.204Z,198.93
2022-12-01T18:58:34.473Z,116.00
2022-12-01T19:01:02.263Z,115.05
2022-12-01T19:03:30.465Z,119.47
2022-12-01T19:05:58.479Z,142.98
2022-12-01T19:08:25.383Z,114.07
2022-12-01T19:11:02.964Z,103.18
2022-12-01T19:13:31.659Z,100.20
2022-12-01T19:15:58.657Z,101.93
2022-12-01T19:18:25.531Z,100.13
2022-12-01T19:20:52.892Z,108.03
2022-12-01T19:23:19.640Z,128.13
2022-12-01T19:25:46.392Z,117.18
2022-12-01T19:28:13.111Z,107.97
2022-12-01T19:30:42.906Z,119.18
2022-12-01T19:33:16.077Z,110.63
2022-12-01T19:35:42.806Z,139.68
2022-12-01T19:38:10.348Z,120.03
2022-12-01T19:40:38.623Z,124.18
2022-12-01T19:43:05.571Z,116.63
2022-12-01T19:45:33.655Z,120.55
2022-12-01T19:48:00.384Z,100.63
2022-12-01T19:50:27.113Z,104.35
2022-12-01T19:52:53.787Z,104.80
2022-12-01T19:55:20.517Z,112.47
2022-12-01T19:57:53.778Z,121.32
2022-12-01T20:00:23.648Z,113.97
2022-12-01T20:02:50.350Z,133.93
2022-12-01T20:05:17.284Z,105.57
2022-12-01T20:07:44.136Z,117.40
2022-12-01T20:10:11.102Z,98.00
2022-12-01T20:12:37.845Z,110.25
2022-12-01T20:15:08.437Z,117.07
2022-12-01T20:17:36.544Z,114.22
2022-12-01T20:20:04.529Z,119.95
2022-12-01T20:22:34.643Z,121.72
2022-12-01T20:25:01.390Z,132.52
2022-12-01T20:27:29.513Z,98.82
2022-12-01T20:29:56.479Z,115.10
2022-12-01T20:32:23.962Z,117.05
2022-12-01T20:34:51.156Z,123.10
2022-12-01T20:37:18.014Z,111.65
2022-12-01T20:39:44.781Z,112.55
2022-12-01T20:42:11.475Z,122.45
2022-12-01T20:44:39.936Z,105.55
2022-12-01T20:47:07.003Z,98.05
2022-12-01T20:49:33.812Z,118.25
2022-12-01T20:52:00.538Z,126.65
2022-12-01T20:54:29.203Z,127.53
2022-12-01T20:56:56.877Z,129.10
2022-12-01T20:59:23.834Z,117.88
2022-12-01T21:01:50.725Z,117.07
2022-12-01T21:04:17.747Z,116.70
2022-12-01T21:06:44.568Z,114.35
2022-12-01T21:09:13.036Z,121.65
2022-12-01T21:12:05.806Z,124.32
2022-12-01T21:14:38.267Z,112.20
2022-12-01T21:17:36.410Z,129.02
2022-12-01T21:20:11.520Z,117.05
2022-12-01T21:22:38.262Z,116.68
2022-12-01T21:25:16.825Z,111.43
2022-12-01T21:27:43.575Z,129.38
2022-12-01T21:30:21.990Z,140.75
2022-12-01T21:32:49.739Z,118.50
2022-12-01T21:35:25.009Z,118.72
2022-12-01T21:37:58.981Z,107.75
2022-12-01T21:40:26.981Z,117.88
2022-12-01T21:42:53.991Z,121.68
2022-12-01T21:45:32.014Z,137.13
2022-12-01T21:48:10.591Z,119.15
2022-12-01T21:50:37.299Z,116.35
2022-12-01T21:53:12.306Z,121.75
2022-12-01T21:55:39.958Z,136.90
2022-12-01T21:58:27.137Z,128.45
2022-12-01T22:00:55.680Z,121.32
2022-12-01T22:03:27.059Z,126.32
2022-12-01T22:06:28.119Z,113.53
2022-12-01T22:09:19.634Z,137.05
2022-12-01T22:11:53.855Z,126.78
2022-12-01T22:14:28.386Z,136.77
2022-12-01T22:16:58.006Z,125.65
2022-12-01T22:20:01.209Z,129.52
2022-12-01T22:22:29.781Z,110.63
2022-12-01T22:25:22.596Z,123.53
2022-12-01T22:27:49.334Z,135.50
2022-12-01T22:30:22.349Z,151.07
2022-12-01T22:32:57.035Z,128.23
2022-12-01T22:35:28.472Z,131.20
2022-12-01T22:38:08.572Z,147.13
2022-12-01T22:40:47.553Z,138.00
2022-12-01T22:43:22.439Z,167.05
2022-12-01T22:46:07.056Z,146.65
2022-12-01T22:48:36.170Z,119.18
2022-12-01T22:51:22.758Z,116.03
2022-12-01T22:53:51.969Z,125.32
2022-12-01T22:56:27.711Z,137.13
2022-12-01T22:58:56.158Z,151.63
2022-12-01T23:01:22.925Z,137.35
2022-12-01T23:03:49.934Z,119.03
2022-12-01T23:06:54.764Z,117.40
2022-12-01T23:09:23.401Z,117.75
2022-12-01T23:11:54.981Z,116.57
2022-12-01T23:14:23.397Z,121.57
2022-12-01T23:16:57.187Z,104.00
2022-12-01T23:19:24.954Z,125.53
2022-12-01T23:21:52.730Z,114.68
2022-12-01T23:24:19.453Z,126.20
2022-12-01T23:26:46.864Z,119.13
2022-12-01T23:29:13.563Z,123.63
2022-12-01T23:31:40.991Z,111.25
2022-12-01T23:34:15.023Z,140.25
2022-12-01T23:36:42.916Z,124.00
2022-12-01T23:39:14.887Z,118.20
2022-12-01T23:41:45.976Z,122.00
2022-12-01T23:44:39.212Z,112.13
2022-12-01T23:47:17.148Z,121.20
2022-12-01T23:49:45.054Z,130.35
2022-12-01T23:52:19.504Z,118.35
2022-12-01T23:54:46.691Z,110.93
2022-12-01T23:57:21.639Z,109.57
